sensor_id;sensor_type;location;lat;lon;timestamp;pressure;altitude;pressure_sealevel;temperature;humidity
12676;BME280;63820;65.654;21.944;2023-06-22T00:02:40;100803.41;;;14.29;100.00
12676;BME280;63820;65.654;21.944;2023-06-22T00:05:24;100800.03;;;14.27;100.00
12676;BME280;63820;65.654;21.944;2023-06-22T00:08:08;100802.72;;;14.26;100.00
12676;BME280;63820;65.654;21.944;2023-06-22T00:10:52;100800.19;;;14.24;100.00
12676;BME280;63820;65.654;21.944;2023-06-22T00:13:36;100802.81;;;14.24;100.00
12676;BME280;63820;65.654;21.944;2023-06-22T00:16:21;100804.41;;;14.27;100.00
12676;BME280;63820;65.654;21.944;2023-06-22T00:19:05;100798.66;;;14.20;100.00
12676;BME280;63820;65.654;21.944;2023-06-22T00:21:50;100804.91;;;14.18;100.00
12676;BME280;63820;65.654;21.944;2023-06-22T00:24:37;100804.06;;;14.17;100.00
12676;BME280;63820;65.654;21.944;2023-06-22T00:27:21;100812.84;;;14.16;100.00
12676;BME280;63820;65.654;21.944;2023-06-22T00:30:06;100807.78;;;14.13;100.00
12676;BME280;63820;65.654;21.944;2023-06-22T00:32:50;100804.53;;;14.08;100.00
12676;BME280;63820;65.654;21.944;2023-06-22T00:35:34;100806.25;;;14.09;100.00
12676;BME280;63820;65.654;21.944;2023-06-22T00:38:18;100800.16;;;14.08;100.00
12676;BME280;63820;65.654;21.944;2023-06-22T00:41:03;100793.41;;;14.04;100.00
12676;BME280;63820;65.654;21.944;2023-06-22T00:43:46;100789.25;;;14.00;100.00
12676;BME280;63820;65.654;21.944;2023-06-22T00:46:30;100798.09;;;13.98;100.00
12676;BME280;63820;65.654;21.944;2023-06-22T00:49:15;100791.09;;;13.98;100.00
12676;BME280;63820;65.654;21.944;2023-06-22T00:51:59;100792.63;;;14.02;100.00
12676;BME280;63820;65.654;21.944;2023-06-22T00:54:43;100802.00;;;14.06;100.00
12676;BME280;63820;65.654;21.944;2023-06-22T00:57:29;100791.63;;;14.05;100.00
12676;BME280;63820;65.654;21.944;2023-06-22T01:00:17;100771.78;;;14.01;100.00
12676;BME280;63820;65.654;21.944;2023-06-22T01:03:03;100777.94;;;14.00;100.00
12676;BME280;63820;65.654;21.944;2023-06-22T01:05:49;100771.84;;;13.99;100.00
12676;BME280;63820;65.654;21.944;2023-06-22T01:08:56;100790.22;;;14.15;100.00
12676;BME280;63820;65.654;21.944;2023-06-22T01:12:05;100782.28;;;14.17;100.00
12676;BME280;63820;65.654;21.944;2023-06-22T01:14:55;100782.38;;;14.15;100.00
12676;BME280;63820;65.654;21.944;2023-06-22T01:17:44;100776.59;;;14.08;100.00
12676;BME280;63820;65.654;21.944;2023-06-22T01:20:29;100781.00;;;14.08;100.00
12676;BME280;63820;65.654;21.944;2023-06-22T01:23:29;100775.75;;;14.08;100.00
12676;BME280;63820;65.654;21.944;2023-06-22T01:26:28;100774.84;;;14.09;100.00
12676;BME280;63820;65.654;21.944;2023-06-22T01:29:19;100781.59;;;14.13;100.00
12676;BME280;63820;65.654;21.944;2023-06-22T01:32:05;100771.97;;;14.14;100.00
12676;BME280;63820;65.654;21.944;2023-06-22T01:34:50;100777.72;;;14.20;100.00
12676;BME280;63820;65.654;21.944;2023-06-22T01:37:36;100771.47;;;14.23;100.00
12676;BME280;63820;65.654;21.944;2023-06-22T01:40:21;100768.78;;;14.24;100.00
12676;BME280;63820;65.654;21.944;2023-06-22T01:43:06;100763.56;;;14.24;100.00
12676;BME280;63820;65.654;21.944;2023-06-22T01:45:51;100758.16;;;14.27;100.00
12676;BME280;63820;65.654;21.944;2023-06-22T01:48:35;100753.84;;;14.26;100.00
12676;BME280;63820;65.654;21.944;2023-06-22T01:51:19;100754.44;;;14.31;100.00
12676;BME280;63820;65.654;21.944;2023-06-22T01:54:06;100752.50;;;14.35;100.00
12676;BME280;63820;65.654;21.944;2023-06-22T01:56:50;100752.78;;;14.46;100.00
12676;BME280;63820;65.654;21.944;2023-06-22T01:59:39;100747.53;;;14.62;100.00
12676;BME280;63820;65.654;21.944;2023-06-22T02:03:19;100744.22;;;14.74;100.00
12676;BME280;63820;65.654;21.944;2023-06-22T02:05:41;100744.28;;;14.88;100.00
12676;BME280;63820;65.654;21.944;2023-06-22T02:08:32;100751.38;;;15.02;100.00
12676;BME280;63820;65.654;21.944;2023-06-22T02:11:19;100743.91;;;15.10;100.00
12676;BME280;63820;65.654;21.944;2023-06-22T02:14:05;100742.53;;;15.19;100.00
12676;BME280;63820;65.654;21.944;2023-06-22T02:16:53;100743.50;;;15.32;100.00
12676;BME280;63820;65.654;21.944;2023-06-22T02:19:39;100734.16;;;15.42;100.00
12676;BME280;63820;65.654;21.944;2023-06-22T02:22:25;100732.50;;;15.55;100.00
12676;BME280;63820;65.654;21.944;2023-06-22T02:25:08;100732.63;;;15.68;100.00
12676;BME280;63820;65.654;21.944;2023-06-22T02:27:53;100730.09;;;15.81;100.00
12676;BME280;63820;65.654;21.944;2023-06-22T02:30:37;100737.41;;;15.90;100.00
12676;BME280;63820;65.654;21.944;2023-06-22T02:33:21;100744.72;;;15.99;100.00
12676;BME280;63820;65.654;21.944;2023-06-22T02:36:05;100744.53;;;16.02;100.00
12676;BME280;63820;65.654;21.944;2023-06-22T02:38:53;100746.59;;;16.11;100.00
12676;BME280;63820;65.654;21.944;2023-06-22T02:41:38;100735.72;;;16.17;100.00
12676;BME280;63820;65.654;21.944;2023-06-22T02:44:22;100736.25;;;16.22;100.00
12676;BME280;63820;65.654;21.944;2023-06-22T02:47:06;100737.84;;;16.25;100.00
12676;BME280;63820;65.654;21.944;2023-06-22T02:49:50;100735.22;;;16.39;100.00
12676;BME280;63820;65.654;21.944;2023-06-22T02:52:34;100724.22;;;16.47;100.00
12676;BME280;63820;65.654;21.944;2023-06-22T02:55:18;100730.78;;;16.54;100.00
12676;BME280;63820;65.654;21.944;2023-06-22T02:58:02;100728.28;;;16.65;100.00
12676;BME280;63820;65.654;21.944;2023-06-22T03:00:48;100732.56;;;16.80;100.00
12676;BME280;63820;65.654;21.944;2023-06-22T03:03:35;100732.59;;;16.93;100.00
12676;BME280;63820;65.654;21.944;2023-06-22T03:06:19;100738.75;;;17.06;100.00
12676;BME280;63820;65.654;21.944;2023-06-22T03:09:07;100722.56;;;17.12;100.00
12676;BME280;63820;65.654;21.944;2023-06-22T03:11:51;100714.16;;;17.20;100.00
12676;BME280;63820;65.654;21.944;2023-06-22T03:14:35;100727.53;;;17.29;100.00
12676;BME280;63820;65.654;21.944;2023-06-22T03:17:19;100729.44;;;17.40;100.00
12676;BME280;63820;65.654;21.944;2023-06-22T03:20:03;100722.09;;;17.45;100.00
12676;BME280;63820;65.654;21.944;2023-06-22T03:22:54;100729.78;;;17.48;100.00
12676;BME280;63820;65.654;21.944;2023-06-22T03:25:38;100728.00;;;17.61;100.00
12676;BME280;63820;65.654;21.944;2023-06-22T03:28:22;100729.88;;;17.59;100.00
12676;BME280;63820;65.654;21.944;2023-06-22T03:31:08;100720.22;;;17.73;100.00
12676;BME280;63820;65.654;21.944;2023-06-22T03:33:52;100727.25;;;17.85;100.00
12676;BME280;63820;65.654;21.944;2023-06-22T03:36:36;100717.75;;;18.08;100.00
12676;BME280;63820;65.654;21.944;2023-06-22T03:39:20;100727.94;;;18.25;100.00
12676;BME280;63820;65.654;21.944;2023-06-22T03:42:05;100732.50;;;18.47;100.00
12676;BME280;63820;65.654;21.944;2023-06-22T03:44:50;100727.88;;;18.98;100.00
12676;BME280;63820;65.654;21.944;2023-06-22T03:47:34;100728.50;;;19.48;100.00
12676;BME280;63820;65.654;21.944;2023-06-22T03:50:18;100725.66;;;20.07;100.00
12676;BME280;63820;65.654;21.944;2023-06-22T03:53:04;100731.63;;;20.85;100.00
12676;BME280;63820;65.654;21.944;2023-06-22T03:55:49;100737.19;;;21.77;100.00
12676;BME280;63820;65.654;21.944;2023-06-22T03:58:36;100743.25;;;22.29;100.00
12676;BME280;63820;65.654;21.944;2023-06-22T04:01:26;100739.19;;;22.74;100.00
12676;BME280;63820;65.654;21.944;2023-06-22T04:04:10;100737.25;;;21.96;100.00
12676;BME280;63820;65.654;21.944;2023-06-22T04:06:54;100733.66;;;21.46;100.00
12676;BME280;63820;65.654;21.944;2023-06-22T04:09:38;100736.13;;;21.06;100.00
12676;BME280;63820;65.654;21.944;2023-06-22T04:12:23;100728.19;;;20.42;100.00
12676;BME280;63820;65.654;21.944;2023-06-22T04:15:08;100737.31;;;20.27;100.00
12676;BME280;63820;65.654;21.944;2023-06-22T04:17:52;100721.69;;;20.23;100.00
12676;BME280;63820;65.654;21.944;2023-06-22T04:20:36;100728.94;;;20.76;100.00
12676;BME280;63820;65.654;21.944;2023-06-22T04:23:20;100719.28;;;22.00;100.00
12676;BME280;63820;65.654;21.944;2023-06-22T04:26:04;100716.28;;;22.73;100.00
12676;BME280;63820;65.654;21.944;2023-06-22T04:28:49;100722.56;;;23.11;100.00
12676;BME280;63820;65.654;21.944;2023-06-22T04:31:39;100719.88;;;23.30;100.00
12676;BME280;63820;65.654;21.944;2023-06-22T04:34:24;100722.38;;;23.61;100.00
12676;BME280;63820;65.654;21.944;2023-06-22T04:37:11;100725.72;;;23.53;100.00
12676;BME280;63820;65.654;21.944;2023-06-22T04:39:59;100725.16;;;23.69;100.00
12676;BME280;63820;65.654;21.944;2023-06-22T04:42:43;100723.09;;;23.34;100.00
12676;BME280;63820;65.654;21.944;2023-06-22T04:45:36;100725.94;;;23.79;100.00
12676;BME280;63820;65.654;21.944;2023-06-22T04:48:21;100717.78;;;23.24;100.00
12676;BME280;63820;65.654;21.944;2023-06-22T04:51:06;100728.44;;;23.14;100.00
12676;BME280;63820;65.654;21.944;2023-06-22T04:53:52;100716.28;;;23.02;100.00
12676;BME280;63820;65.654;21.944;2023-06-22T04:56:36;100715.97;;;22.57;100.00
12676;BME280;63820;65.654;21.944;2023-06-22T04:59:20;100723.69;;;22.20;100.00
12676;BME280;63820;65.654;21.944;2023-06-22T05:02:05;100724.25;;;22.14;100.00
12676;BME280;63820;65.654;21.944;2023-06-22T05:04:49;100720.94;;;22.01;100.00
12676;BME280;63820;65.654;21.944;2023-06-22T05:07:35;100710.19;;;21.93;100.00
12676;BME280;63820;65.654;21.944;2023-06-22T05:10:19;100701.47;;;21.71;100.00
12676;BME280;63820;65.654;21.944;2023-06-22T05:13:03;100708.53;;;21.40;100.00
12676;BME280;63820;65.654;21.944;2023-06-22T05:15:47;100714.88;;;21.49;100.00
12676;BME280;63820;65.654;21.944;2023-06-22T05:18:31;100716.50;;;21.40;100.00
12676;BME280;63820;65.654;21.944;2023-06-22T05:21:16;100711.22;;;21.71;100.00
12676;BME280;63820;65.654;21.944;2023-06-22T05:24:00;100704.06;;;21.62;100.00
12676;BME280;63820;65.654;21.944;2023-06-22T05:26:46;100701.41;;;22.32;100.00
12676;BME280;63820;65.654;21.944;2023-06-22T05:29:30;100697.97;;;22.70;100.00
12676;BME280;63820;65.654;21.944;2023-06-22T05:32:14;100700.44;;;22.43;100.00
12676;BME280;63820;65.654;21.944;2023-06-22T05:34:58;100705.38;;;23.81;100.00
12676;BME280;63820;65.654;21.944;2023-06-22T05:37:43;100708.31;;;24.60;100.00
12676;BME280;63820;65.654;21.944;2023-06-22T05:40:26;100708.09;;;25.59;98.57
12676;BME280;63820;65.654;21.944;2023-06-22T05:43:11;100701.50;;;26.47;85.60
12676;BME280;63820;65.654;21.944;2023-06-22T05:45:55;100709.41;;;27.22;77.86
12676;BME280;63820;65.654;21.944;2023-06-22T05:48:39;100706.44;;;27.00;74.59
12676;BME280;63820;65.654;21.944;2023-06-22T05:51:23;100699.72;;;26.72;74.37
12676;BME280;63820;65.654;21.944;2023-06-22T05:54:08;100705.22;;;27.35;71.66
12676;BME280;63820;65.654;21.944;2023-06-22T05:56:52;100704.50;;;27.50;71.44
12676;BME280;63820;65.654;21.944;2023-06-22T05:59:37;100691.88;;;26.87;70.67
12676;BME280;63820;65.654;21.944;2023-06-22T06:02:20;100696.66;;;26.51;72.69
12676;BME280;63820;65.654;21.944;2023-06-22T06:05:05;100694.56;;;27.03;75.47
12676;BME280;63820;65.654;21.944;2023-06-22T06:07:49;100699.88;;;27.19;70.05
12676;BME280;63820;65.654;21.944;2023-06-22T06:10:35;100695.81;;;27.72;68.09
12676;BME280;63820;65.654;21.944;2023-06-22T06:13:19;100698.50;;;27.64;67.59
12676;BME280;63820;65.654;21.944;2023-06-22T06:16:04;100691.88;;;28.84;63.14
12676;BME280;63820;65.654;21.944;2023-06-22T06:18:47;100685.06;;;28.96;59.73
12676;BME280;63820;65.654;21.944;2023-06-22T06:21:34;100673.75;;;28.40;61.29
12676;BME280;63820;65.654;21.944;2023-06-22T06:24:18;100674.56;;;29.09;61.06
12676;BME280;63820;65.654;21.944;2023-06-22T06:27:02;100669.47;;;28.77;59.23
12676;BME280;63820;65.654;21.944;2023-06-22T06:29:48;100675.09;;;29.42;56.69
12676;BME280;63820;65.654;21.944;2023-06-22T06:32:32;100675.13;;;28.82;58.33
12676;BME280;63820;65.654;21.944;2023-06-22T06:35:16;100682.25;;;29.27;59.59
12676;BME280;63820;65.654;21.944;2023-06-22T06:38:00;100681.56;;;28.73;60.96
12676;BME280;63820;65.654;21.944;2023-06-22T06:40:44;100677.28;;;29.39;56.53
12676;BME280;63820;65.654;21.944;2023-06-22T06:43:29;100674.25;;;29.42;56.64
12676;BME280;63820;65.654;21.944;2023-06-22T06:46:13;100665.31;;;30.94;53.69
12676;BME280;63820;65.654;21.944;2023-06-22T06:48:56;100674.75;;;31.39;52.27
12676;BME280;63820;65.654;21.944;2023-06-22T06:51:40;100677.66;;;31.72;50.89
12676;BME280;63820;65.654;21.944;2023-06-22T06:54:24;100674.66;;;31.95;51.77
12676;BME280;63820;65.654;21.944;2023-06-22T06:57:08;100680.00;;;31.88;48.96
12676;BME280;63820;65.654;21.944;2023-06-22T06:59:57;100692.59;;;31.81;49.30
12676;BME280;63820;65.654;21.944;2023-06-22T07:02:43;100680.94;;;32.15;48.91
12676;BME280;63820;65.654;21.944;2023-06-22T07:05:27;100687.78;;;32.11;49.13
12676;BME280;63820;65.654;21.944;2023-06-22T07:08:11;100676.59;;;30.25;51.70
12676;BME280;63820;65.654;21.944;2023-06-22T07:10:55;100698.81;;;31.81;49.89
12676;BME280;63820;65.654;21.944;2023-06-22T07:13:40;100690.88;;;33.08;48.10
12676;BME280;63820;65.654;21.944;2023-06-22T07:16:24;100698.03;;;32.48;48.03
12676;BME280;63820;65.654;21.944;2023-06-22T07:19:11;100694.00;;;31.70;49.43
12676;BME280;63820;65.654;21.944;2023-06-22T07:21:56;100699.75;;;31.67;49.03
12676;BME280;63820;65.654;21.944;2023-06-22T07:24:40;100691.06;;;32.94;48.37
12676;BME280;63820;65.654;21.944;2023-06-22T07:27:24;100696.03;;;32.77;47.55
12676;BME280;63820;65.654;21.944;2023-06-22T07:30:09;100703.09;;;32.10;48.30
12676;BME280;63820;65.654;21.944;2023-06-22T07:32:54;100697.47;;;32.73;46.87
12676;BME280;63820;65.654;21.944;2023-06-22T07:35:38;100700.16;;;32.66;47.64
12676;BME280;63820;65.654;21.944;2023-06-22T07:38:23;100696.31;;;32.21;48.33
12676;BME280;63820;65.654;21.944;2023-06-22T07:41:07;100696.19;;;31.95;48.35
12676;BME280;63820;65.654;21.944;2023-06-22T07:43:51;100689.19;;;33.34;46.20
12676;BME280;63820;65.654;21.944;2023-06-22T07:46:35;100696.34;;;33.79;46.02
12676;BME280;63820;65.654;21.944;2023-06-22T07:49:19;100693.94;;;34.16;44.04
12676;BME280;63820;65.654;21.944;2023-06-22T07:52:03;100696.75;;;34.66;43.38
12676;BME280;63820;65.654;21.944;2023-06-22T07:54:48;100694.97;;;33.44;44.74
12676;BME280;63820;65.654;21.944;2023-06-22T07:57:32;100699.66;;;34.71;43.92
12676;BME280;63820;65.654;21.944;2023-06-22T08:00:17;100690.53;;;33.76;43.75
12676;BME280;63820;65.654;21.944;2023-06-22T08:03:02;100689.31;;;32.46;45.76
12676;BME280;63820;65.654;21.944;2023-06-22T08:05:48;100697.59;;;33.90;44.81
12676;BME280;63820;65.654;21.944;2023-06-22T08:08:33;100697.47;;;34.86;42.49
12676;BME280;63820;65.654;21.944;2023-06-22T08:11:17;100686.72;;;32.93;44.06
12676;BME280;63820;65.654;21.944;2023-06-22T08:14:01;100685.97;;;33.76;43.79
12676;BME280;63820;65.654;21.944;2023-06-22T08:16:46;100675.25;;;32.64;45.93
12676;BME280;63820;65.654;21.944;2023-06-22T08:19:30;100679.56;;;32.32;47.49
12676;BME280;63820;65.654;21.944;2023-06-22T08:22:15;100682.91;;;32.47;46.46
12676;BME280;63820;65.654;21.944;2023-06-22T08:24:59;100671.22;;;31.10;47.23
12676;BME280;63820;65.654;21.944;2023-06-22T08:27:47;100669.44;;;32.54;47.00
12676;BME280;63820;65.654;21.944;2023-06-22T08:30:32;100667.22;;;33.10;43.93
12676;BME280;63820;65.654;21.944;2023-06-22T08:33:17;100665.75;;;33.14;43.78
12676;BME280;63820;65.654;21.944;2023-06-22T08:36:01;100675.63;;;33.60;44.54
12676;BME280;63820;65.654;21.944;2023-06-22T08:38:45;100675.47;;;34.13;43.39
12676;BME280;63820;65.654;21.944;2023-06-22T08:41:33;100680.19;;;34.24;42.48
12676;BME280;63820;65.654;21.944;2023-06-22T08:44:18;100679.59;;;35.35;42.01
12676;BME280;63820;65.654;21.944;2023-06-22T08:47:03;100674.97;;;33.71;43.40
12676;BME280;63820;65.654;21.944;2023-06-22T08:49:47;100674.63;;;34.82;42.69
12676;BME280;63820;65.654;21.944;2023-06-22T08:52:31;100681.53;;;35.46;41.27
12676;BME280;63820;65.654;21.944;2023-06-22T08:55:15;100679.94;;;34.95;42.09
12676;BME280;63820;65.654;21.944;2023-06-22T08:57:59;100677.72;;;34.86;41.93
12676;BME280;63820;65.654;21.944;2023-06-22T09:00:43;100679.59;;;34.85;41.63
12676;BME280;63820;65.654;21.944;2023-06-22T09:03:27;100670.06;;;34.76;41.79
12676;BME280;63820;65.654;21.944;2023-06-22T09:06:11;100675.28;;;33.37;42.97
12676;BME280;63820;65.654;21.944;2023-06-22T09:08:56;100685.97;;;33.83;43.18
12676;BME280;63820;65.654;21.944;2023-06-22T09:11:40;100680.22;;;32.61;43.88
12676;BME280;63820;65.654;21.944;2023-06-22T09:14:24;100678.22;;;34.00;43.06
12676;BME280;63820;65.654;21.944;2023-06-22T09:17:09;100677.06;;;32.37;44.64
12676;BME280;63820;65.654;21.944;2023-06-22T09:19:52;100673.56;;;33.56;43.35
12676;BME280;63820;65.654;21.944;2023-06-22T09:22:36;100684.22;;;34.08;42.68
12676;BME280;63820;65.654;21.944;2023-06-22T09:25:20;100672.38;;;33.32;43.81
12676;BME280;63820;65.654;21.944;2023-06-22T09:28:05;100671.56;;;33.25;42.75
12676;BME280;63820;65.654;21.944;2023-06-22T09:30:49;100669.69;;;34.72;41.21
12676;BME280;63820;65.654;21.944;2023-06-22T09:33:33;100671.72;;;35.27;40.09
12676;BME280;63820;65.654;21.944;2023-06-22T09:36:17;100684.25;;;35.64;41.89
12676;BME280;63820;65.654;21.944;2023-06-22T09:39:01;100682.69;;;36.23;38.71
12676;BME280;63820;65.654;21.944;2023-06-22T09:41:49;100676.19;;;35.39;39.58
12676;BME280;63820;65.654;21.944;2023-06-22T09:44:34;100676.06;;;34.53;41.53
12676;BME280;63820;65.654;21.944;2023-06-22T09:47:18;100678.81;;;35.64;40.01
12676;BME280;63820;65.654;21.944;2023-06-22T09:50:02;100675.75;;;35.97;39.30
12676;BME280;63820;65.654;21.944;2023-06-22T09:52:47;100672.31;;;37.27;38.32
12676;BME280;63820;65.654;21.944;2023-06-22T09:55:35;100669.44;;;36.75;38.33
12676;BME280;63820;65.654;21.944;2023-06-22T09:58:19;100669.28;;;36.70;38.06
12676;BME280;63820;65.654;21.944;2023-06-22T10:01:03;100663.06;;;36.28;39.48
12676;BME280;63820;65.654;21.944;2023-06-22T10:03:47;100657.88;;;35.17;40.04
12676;BME280;63820;65.654;21.944;2023-06-22T10:06:31;100649.56;;;33.21;43.18
12676;BME280;63820;65.654;21.944;2023-06-22T10:09:15;100652.09;;;34.88;41.24
12676;BME280;63820;65.654;21.944;2023-06-22T10:11:59;100653.38;;;36.02;39.51
12676;BME280;63820;65.654;21.944;2023-06-22T10:14:43;100659.16;;;34.89;41.04
12676;BME280;63820;65.654;21.944;2023-06-22T10:17:27;100650.50;;;34.18;40.97
12676;BME280;63820;65.654;21.944;2023-06-22T10:20:11;100667.22;;;35.21;41.78
12676;BME280;63820;65.654;21.944;2023-06-22T10:22:55;100655.31;;;36.13;40.20
12676;BME280;63820;65.654;21.944;2023-06-22T10:25:40;100660.78;;;35.58;39.94
12676;BME280;63820;65.654;21.944;2023-06-22T10:28:24;100657.59;;;35.98;38.32
12676;BME280;63820;65.654;21.944;2023-06-22T10:31:08;100660.81;;;34.90;40.85
12676;BME280;63820;65.654;21.944;2023-06-22T10:33:52;100651.06;;;34.89;40.54
12676;BME280;63820;65.654;21.944;2023-06-22T10:36:38;100656.34;;;33.50;42.04
12676;BME280;63820;65.654;21.944;2023-06-22T10:39:22;100645.31;;;33.58;42.53
12676;BME280;63820;65.654;21.944;2023-06-22T10:42:06;100647.00;;;32.27;43.45
12676;BME280;63820;65.654;21.944;2023-06-22T10:44:50;100650.25;;;30.35;46.85
12676;BME280;63820;65.654;21.944;2023-06-22T10:47:35;100647.00;;;30.82;46.42
12676;BME280;63820;65.654;21.944;2023-06-22T10:50:19;100646.03;;;30.47;47.34
12676;BME280;63820;65.654;21.944;2023-06-22T10:53:04;100640.22;;;32.71;44.83
12676;BME280;63820;65.654;21.944;2023-06-22T10:55:48;100645.47;;;33.83;41.60
12676;BME280;63820;65.654;21.944;2023-06-22T10:58:32;100646.09;;;33.78;41.91
12676;BME280;63820;65.654;21.944;2023-06-22T11:01:16;100640.00;;;32.53;44.50
12676;BME280;63820;65.654;21.944;2023-06-22T11:04:01;100633.75;;;30.38;48.10
12676;BME280;63820;65.654;21.944;2023-06-22T11:06:45;100640.34;;;30.14;49.11
12676;BME280;63820;65.654;21.944;2023-06-22T11:09:29;100637.31;;;30.24;49.18
12676;BME280;63820;65.654;21.944;2023-06-22T11:12:13;100641.94;;;30.51;49.38
12676;BME280;63820;65.654;21.944;2023-06-22T11:14:57;100636.31;;;30.25;49.96
12676;BME280;63820;65.654;21.944;2023-06-22T11:17:41;100640.66;;;29.90;50.49
12676;BME280;63820;65.654;21.944;2023-06-22T11:20:25;100635.84;;;29.41;51.54
12676;BME280;63820;65.654;21.944;2023-06-22T11:23:09;100634.09;;;29.63;53.08
12676;BME280;63820;65.654;21.944;2023-06-22T11:25:55;100636.13;;;29.02;54.40
12676;BME280;63820;65.654;21.944;2023-06-22T11:28:40;100638.44;;;29.35;53.56
12676;BME280;63820;65.654;21.944;2023-06-22T11:31:24;100644.28;;;29.53;52.62
12676;BME280;63820;65.654;21.944;2023-06-22T11:34:08;100640.94;;;29.80;52.94
12676;BME280;63820;65.654;21.944;2023-06-22T11:36:52;100639.34;;;30.58;51.02
12676;BME280;63820;65.654;21.944;2023-06-22T11:39:36;100639.34;;;29.86;51.70
12676;BME280;63820;65.654;21.944;2023-06-22T11:42:20;100636.53;;;30.66;50.06
12676;BME280;63820;65.654;21.944;2023-06-22T11:45:07;100635.56;;;30.74;50.97
12676;BME280;63820;65.654;21.944;2023-06-22T11:47:51;100638.50;;;30.15;51.42
12676;BME280;63820;65.654;21.944;2023-06-22T11:50:35;100641.44;;;29.54;52.85
12676;BME280;63820;65.654;21.944;2023-06-22T11:53:20;100636.00;;;28.95;54.61
12676;BME280;63820;65.654;21.944;2023-06-22T11:56:05;100642.41;;;27.23;59.61
12676;BME280;63820;65.654;21.944;2023-06-22T11:58:49;100633.31;;;27.57;61.58
12676;BME280;63820;65.654;21.944;2023-06-22T12:01:33;100619.47;;;27.92;60.48
12676;BME280;63820;65.654;21.944;2023-06-22T12:04:17;100623.13;;;27.99;58.93
12676;BME280;63820;65.654;21.944;2023-06-22T12:07:02;100626.91;;;28.36;57.25
12676;BME280;63820;65.654;21.944;2023-06-22T12:09:46;100623.63;;;28.94;56.33
12676;BME280;63820;65.654;21.944;2023-06-22T12:12:30;100629.56;;;29.05;55.34
12676;BME280;63820;65.654;21.944;2023-06-22T12:15:14;100624.53;;;28.64;54.85
12676;BME280;63820;65.654;21.944;2023-06-22T12:17:58;100623.34;;;28.44;56.85
12676;BME280;63820;65.654;21.944;2023-06-22T12:20:42;100620.31;;;29.22;53.97
12676;BME280;63820;65.654;21.944;2023-06-22T12:23:26;100621.59;;;29.26;54.20
12676;BME280;63820;65.654;21.944;2023-06-22T12:26:10;100623.50;;;28.88;55.78
12676;BME280;63820;65.654;21.944;2023-06-22T12:28:54;100619.84;;;29.77;53.43
12676;BME280;63820;65.654;21.944;2023-06-22T12:31:38;100613.22;;;28.54;55.27
12676;BME280;63820;65.654;21.944;2023-06-22T12:34:23;100616.72;;;28.54;55.47
12676;BME280;63820;65.654;21.944;2023-06-22T12:37:07;100626.31;;;27.95;56.91
12676;BME280;63820;65.654;21.944;2023-06-22T12:39:54;100602.41;;;28.47;55.64
12676;BME280;63820;65.654;21.944;2023-06-22T12:42:38;100612.44;;;28.91;57.45
12676;BME280;63820;65.654;21.944;2023-06-22T12:45:22;100612.00;;;29.02;55.25
12676;BME280;63820;65.654;21.944;2023-06-22T12:48:06;100607.34;;;28.36;54.94
12676;BME280;63820;65.654;21.944;2023-06-22T12:50:52;100603.72;;;27.97;57.30
12676;BME280;63820;65.654;21.944;2023-06-22T12:53:36;100603.13;;;27.87;59.81
12676;BME280;63820;65.654;21.944;2023-06-22T12:56:20;100606.00;;;27.78;61.63
12676;BME280;63820;65.654;21.944;2023-06-22T12:59:04;100605.72;;;28.49;56.21
12676;BME280;63820;65.654;21.944;2023-06-22T13:01:50;100607.88;;;28.31;58.46
12676;BME280;63820;65.654;21.944;2023-06-22T13:04:34;100610.50;;;29.00;56.59
12676;BME280;63820;65.654;21.944;2023-06-22T13:07:18;100602.19;;;28.94;57.00
12676;BME280;63820;65.654;21.944;2023-06-22T13:10:03;100596.38;;;28.22;57.19
12676;BME280;63820;65.654;21.944;2023-06-22T13:12:47;100599.53;;;28.26;57.78
12676;BME280;63820;65.654;21.944;2023-06-22T13:15:31;100599.84;;;28.31;57.39
12676;BME280;63820;65.654;21.944;2023-06-22T13:18:15;100591.81;;;28.31;56.01
12676;BME280;63820;65.654;21.944;2023-06-22T13:21:00;100602.69;;;27.12;61.53
12676;BME280;63820;65.654;21.944;2023-06-22T13:23:44;100593.72;;;26.64;62.25
12676;BME280;63820;65.654;21.944;2023-06-22T13:26:27;100591.56;;;26.35;66.60
12676;BME280;63820;65.654;21.944;2023-06-22T13:29:15;100592.81;;;26.15;65.81
12676;BME280;63820;65.654;21.944;2023-06-22T13:31:59;100590.78;;;26.01;69.26
12676;BME280;63820;65.654;21.944;2023-06-22T13:34:43;100588.41;;;26.56;66.38
12676;BME280;63820;65.654;21.944;2023-06-22T13:37:27;100596.91;;;26.76;65.09
12676;BME280;63820;65.654;21.944;2023-06-22T13:40:11;100594.66;;;26.23;68.84
12676;BME280;63820;65.654;21.944;2023-06-22T13:42:56;100594.66;;;26.23;70.34
12676;BME280;63820;65.654;21.944;2023-06-22T13:45:40;100603.75;;;26.70;67.22
12676;BME280;63820;65.654;21.944;2023-06-22T13:48:25;100602.91;;;26.62;67.42
12676;BME280;63820;65.654;21.944;2023-06-22T13:51:10;100603.06;;;26.93;70.31
12676;BME280;63820;65.654;21.944;2023-06-22T13:53:54;100601.06;;;26.62;68.24
12676;BME280;63820;65.654;21.944;2023-06-22T13:56:38;100600.41;;;26.77;71.37
12676;BME280;63820;65.654;21.944;2023-06-22T13:59:22;100597.97;;;25.92;71.09
12676;BME280;63820;65.654;21.944;2023-06-22T14:02:06;100599.25;;;26.55;69.97
12676;BME280;63820;65.654;21.944;2023-06-22T14:04:50;100600.66;;;26.17;70.29
12676;BME280;63820;65.654;21.944;2023-06-22T14:07:34;100602.06;;;26.61;76.43